createdAt,value
2018-09-12T00:01:41.758Z,49.08
2018-09-12T00:04:10.515Z,49.35
2018-09-12T00:06:39.266Z,49.03
2018-09-12T00:09:10.192Z,49.06
2018-09-12T00:11:38.969Z,49.69
2018-09-12T00:14:07.731Z,49.71
2018-09-12T00:16:37.117Z,49.64
2018-09-12T00:19:06.197Z,49.39
2018-09-12T00:21:34.920Z,49.74
2018-09-12T00:24:03.685Z,49.67
2018-09-12T00:26:32.444Z,49.16
2018-09-12T00:29:01.366Z,49.20
2018-09-12T00:31:30.125Z,49.81
2018-09-12T00:33:58.939Z,49.63
2018-09-12T00:36:27.658Z,49.75
2018-09-12T00:38:56.437Z,49.32
2018-09-12T00:41:25.204Z,49.43
2018-09-12T00:43:53.986Z,49.88
2018-09-12T00:46:22.714Z,49.98
2018-09-12T00:48:51.496Z,49.48
2018-09-12T00:51:20.258Z,49.48
2018-09-12T00:53:49.000Z,49.53
2018-09-12T00:56:17.757Z,49.49
2018-09-12T00:58:46.556Z,49.54
2018-09-12T01:01:15.346Z,49.60
2018-09-12T01:03:44.249Z,49.56
2018-09-12T01:06:12.974Z,49.98
2018-09-12T01:08:41.769Z,49.67
2018-09-12T01:11:10.542Z,49.59
2018-09-12T01:13:39.308Z,50.07
2018-09-12T01:16:08.091Z,50.12
2018-09-12T01:18:36.806Z,50.09
2018-09-12T01:21:05.728Z,50.30
2018-09-12T01:23:34.477Z,50.39
2018-09-12T01:26:03.256Z,50.41
2018-09-12T01:28:31.973Z,50.33
2018-09-12T01:31:00.749Z,50.02
2018-09-12T01:33:29.540Z,50.42
2018-09-12T01:35:58.261Z,49.90
2018-09-12T01:38:27.062Z,49.90
2018-09-12T01:40:55.986Z,49.94
2018-09-12T01:43:24.758Z,50.22
2018-09-12T01:45:53.522Z,50.52
2018-09-12T01:48:22.265Z,50.00
2018-09-12T01:50:51.017Z,50.49
2018-09-12T01:53:19.805Z,50.58
2018-09-12T01:55:48.519Z,50.02
2018-09-12T01:58:17.373Z,50.12
2018-09-12T02:00:46.189Z,50.08
2018-09-12T02:03:14.994Z,50.15
2018-09-12T02:05:43.840Z,50.40
2018-09-12T02:08:12.544Z,50.67
2018-09-12T02:10:41.320Z,50.35
2018-09-12T02:13:10.089Z,50.13
2018-09-12T02:15:38.849Z,50.19
2018-09-12T02:18:07.635Z,50.17
2018-09-12T02:20:36.395Z,50.17
2018-09-12T02:23:05.186Z,50.83
2018-09-12T02:25:33.948Z,50.31
2018-09-12T02:28:02.738Z,50.83
2018-09-12T02:30:31.478Z,50.34
2018-09-12T02:33:00.265Z,50.30
2018-09-12T02:35:29.122Z,50.34
2018-09-12T02:37:57.845Z,50.73
2018-09-12T02:40:26.607Z,50.72
2018-09-12T02:42:55.354Z,50.72
2018-09-12T02:45:24.115Z,50.64
2018-09-12T02:47:52.862Z,50.76
2018-09-12T02:50:21.598Z,50.61
2018-09-12T02:52:50.397Z,50.15
2018-09-12T02:55:19.114Z,50.27
2018-09-12T02:57:47.884Z,49.95
2018-09-12T03:00:16.630Z,50.64
2018-09-12T03:02:45.413Z,50.60
2018-09-12T03:05:14.170Z,50.17
2018-09-12T03:07:42.931Z,50.09
2018-09-12T03:10:11.677Z,50.04
2018-09-12T03:12:40.452Z,50.64
2018-09-12T03:15:09.279Z,50.61
2018-09-12T03:17:38.010Z,50.18
2018-09-12T03:20:06.885Z,50.08
2018-09-12T03:22:35.620Z,50.08
2018-09-12T03:25:04.489Z,50.08
2018-09-12T03:27:33.237Z,50.31
2018-09-12T03:30:01.971Z,50.14
2018-09-12T03:32:30.703Z,50.47
2018-09-12T03:34:59.547Z,50.03
2018-09-12T03:37:28.312Z,50.65
2018-09-12T03:39:57.079Z,50.66
2018-09-12T03:42:25.777Z,50.56
2018-09-12T03:44:54.595Z,49.98
2018-09-12T03:47:23.386Z,49.99
2018-09-12T03:49:52.173Z,50.11
2018-09-12T03:52:21.004Z,50.47
2018-09-12T03:54:49.868Z,50.74
2018-09-12T03:57:18.625Z,50.27
2018-09-12T03:59:47.461Z,50.16
2018-09-12T04:02:16.205Z,50.15
2018-09-12T04:04:44.920Z,50.14
2018-09-12T04:07:13.687Z,50.29
2018-09-12T04:09:42.538Z,50.11
2018-09-12T04:12:11.299Z,50.46
2018-09-12T04:14:40.077Z,50.68
2018-09-12T04:17:08.880Z,50.49
2018-09-12T04:19:37.603Z,50.09
2018-09-12T04:22:06.390Z,50.32
2018-09-12T04:24:35.144Z,50.20
2018-09-12T04:27:04.199Z,50.25
2018-09-12T04:29:32.939Z,50.60
2018-09-12T04:32:01.898Z,50.59
2018-09-12T04:34:30.722Z,50.01
2018-09-12T04:36:59.466Z,50.12
2018-09-12T04:39:28.248Z,50.63
2018-09-12T04:41:57.043Z,50.17
2018-09-12T04:44:25.802Z,50.10
2018-09-12T04:46:54.685Z,50.65
2018-09-12T04:49:23.532Z,50.20
2018-09-12T04:51:52.347Z,50.23
2018-09-12T04:54:21.097Z,50.33
2018-09-12T04:56:49.828Z,50.44
2018-09-12T04:59:18.605Z,50.06
2018-09-12T05:01:47.397Z,50.34
2018-09-12T05:04:16.208Z,49.85
2018-09-12T05:06:44.946Z,49.95
2018-09-12T05:09:13.864Z,49.88
2018-09-12T05:11:42.678Z,50.36
2018-09-12T05:14:11.503Z,49.87
2018-09-12T05:16:41.230Z,49.97
2018-09-12T05:19:09.979Z,49.73
2018-09-12T05:21:38.757Z,49.95
2018-09-12T05:24:07.496Z,50.18
2018-09-12T05:26:36.331Z,49.52
2018-09-12T05:29:05.437Z,50.20
2018-09-12T05:31:34.283Z,49.54
2018-09-12T05:34:03.077Z,49.46
2018-09-12T05:36:31.881Z,50.07
2018-09-12T05:39:00.700Z,50.05
2018-09-12T05:41:29.538Z,49.39
2018-09-12T05:43:58.273Z,49.50
2018-09-12T05:46:27.067Z,49.47
2018-09-12T05:48:55.908Z,49.28
2018-09-12T05:51:24.718Z,49.42
2018-09-12T05:53:53.601Z,49.44
2018-09-12T05:56:22.345Z,49.58
2018-09-12T05:58:51.317Z,49.88
2018-09-12T06:01:20.121Z,50.04
2018-09-12T06:03:48.955Z,50.84
2018-09-12T06:06:17.823Z,50.25
2018-09-12T06:08:46.607Z,50.87
2018-09-12T06:11:15.419Z,50.17
2018-09-12T06:13:44.272Z,50.41
2018-09-12T06:16:13.058Z,50.38
2018-09-12T06:18:41.831Z,50.55
2018-09-12T06:21:10.669Z,50.02
2018-09-12T06:23:39.422Z,50.73
2018-09-12T06:26:08.218Z,50.33
2018-09-12T06:28:36.979Z,50.66
2018-09-12T06:31:06.014Z,50.61
2018-09-12T06:33:34.750Z,50.18
2018-09-12T06:36:03.706Z,50.37
2018-09-12T06:38:32.642Z,50.30
2018-09-12T06:41:01.451Z,50.14
2018-09-12T06:43:30.207Z,50.89
2018-09-12T06:45:58.968Z,50.55
2018-09-12T06:48:27.955Z,50.93
2018-09-12T06:50:56.810Z,50.89
2018-09-12T06:53:25.908Z,50.35
2018-09-12T06:55:54.749Z,50.42
2018-09-12T06:58:23.531Z,50.35
2018-09-12T07:00:52.588Z,50.26
2018-09-12T07:03:21.573Z,50.29
2018-09-12T07:05:50.510Z,50.77
2018-09-12T07:08:19.434Z,50.19
2018-09-12T07:10:48.168Z,50.82
2018-09-12T07:13:17.324Z,50.67
2018-09-12T07:15:46.429Z,50.11
2018-09-12T07:18:15.331Z,50.04
2018-09-12T07:20:44.172Z,50.23
2018-09-12T07:23:12.911Z,49.87
2018-09-12T07:25:42.101Z,49.82
2018-09-12T07:28:11.105Z,50.21
2018-09-12T07:30:40.207Z,49.75
2018-09-12T07:33:09.184Z,49.53
2018-09-12T07:35:38.295Z,49.88
2018-09-12T07:38:07.132Z,49.76
2018-09-12T07:40:35.926Z,49.89
2018-09-12T07:43:04.806Z,49.75
2018-09-12T07:45:33.530Z,49.73
2018-09-12T07:48:02.305Z,49.04
2018-09-12T07:50:31.153Z,49.58
2018-09-12T07:52:59.921Z,49.55
2018-09-12T07:55:28.668Z,49.30
2018-09-12T07:57:57.395Z,49.36
2018-09-12T08:00:26.260Z,48.94
2018-09-12T08:02:55.013Z,49.13
2018-09-12T08:05:23.745Z,49.17
2018-09-12T08:07:52.513Z,49.00
2018-09-12T08:10:21.343Z,48.45
2018-09-12T08:12:50.168Z,48.89
2018-09-12T08:15:19.136Z,48.42
2018-09-12T08:17:48.310Z,48.83
2018-09-12T08:20:17.365Z,48.29
2018-09-12T08:22:46.321Z,48.56
2018-09-12T08:25:15.107Z,48.63
2018-09-12T08:27:43.850Z,48.03
2018-09-12T08:30:12.948Z,47.91
2018-09-12T08:32:41.730Z,47.94
2018-09-12T08:35:12.198Z,48.38
2018-09-12T08:37:41.201Z,47.78
2018-09-12T08:40:10.396Z,47.82
2018-09-12T08:42:39.211Z,47.91
2018-09-12T08:45:08.118Z,48.33
2018-09-12T08:47:37.109Z,47.77
2018-09-12T08:50:06.750Z,47.75
2018-09-12T08:52:35.529Z,47.73
2018-09-12T08:55:05.021Z,48.16
2018-09-12T08:57:33.756Z,48.04
2018-09-12T09:00:02.765Z,47.96
2018-09-12T09:02:31.781Z,47.95
2018-09-12T09:05:00.856Z,47.97
2018-09-12T09:07:29.698Z,47.55
2018-09-12T09:09:58.537Z,47.84
2018-09-12T09:12:27.438Z,47.25
2018-09-12T09:14:56.386Z,47.22
2018-09-12T09:17:25.227Z,47.91
2018-09-12T09:19:54.107Z,47.44
2018-09-12T09:22:23.149Z,47.60
2018-09-12T09:24:51.902Z,47.74
2018-09-12T09:27:21.025Z,47.58
2018-09-12T09:29:50.178Z,47.36
2018-09-12T09:32:19.247Z,47.32
2018-09-12T09:34:48.471Z,48.08
2018-09-12T09:37:17.763Z,47.58
2018-09-12T09:39:46.619Z,48.18
2018-09-12T09:42:15.670Z,48.30
2018-09-12T09:44:44.441Z,48.06
2018-09-12T09:47:13.466Z,48.28
2018-09-12T09:49:42.581Z,47.96
2018-09-12T09:52:11.538Z,48.19
2018-09-12T09:54:40.560Z,48.17
2018-09-12T09:57:09.553Z,47.88
2018-09-12T09:59:39.373Z,48.31
2018-09-12T10:02:13.534Z,47.95
2018-09-12T10:04:47.580Z,48.26
2018-09-12T10:07:22.008Z,48.35
2018-09-12T10:09:55.285Z,48.28
2018-09-12T10:12:24.279Z,47.86
2018-09-12T10:14:53.340Z,48.24
2018-09-12T10:17:22.400Z,48.19
2018-09-12T10:19:51.512Z,47.67
2018-09-12T10:22:20.450Z,48.03
2018-09-12T10:24:49.494Z,47.86
2018-09-12T10:27:18.553Z,47.49
2018-09-12T10:29:47.776Z,48.00
2018-09-12T10:32:16.887Z,47.52
2018-09-12T10:34:45.935Z,47.79
2018-09-12T10:37:16.547Z,47.91
2018-09-12T10:39:45.590Z,48.03
2018-09-12T10:42:14.774Z,47.88
2018-09-12T10:44:44.023Z,47.83
2018-09-12T10:47:13.255Z,47.84
2018-09-12T10:49:42.026Z,47.80
2018-09-12T10:52:11.307Z,47.83
2018-09-12T10:54:40.058Z,47.84
2018-09-12T10:57:08.934Z,47.19
2018-09-12T10:59:37.726Z,47.80
2018-09-12T11:02:06.549Z,47.31
2018-09-12T11:04:35.300Z,47.31
2018-09-12T11:07:04.192Z,47.28
2018-09-12T11:09:32.935Z,47.53
2018-09-12T11:12:02.077Z,47.12
2018-09-12T11:14:30.823Z,47.58
2018-09-12T11:16:59.575Z,47.01
2018-09-12T11:19:28.379Z,47.55
2018-09-12T11:21:57.159Z,47.47
2018-09-12T11:24:25.909Z,46.99
2018-09-12T11:26:54.622Z,47.45
2018-09-12T11:29:23.434Z,47.20
2018-09-12T11:31:52.453Z,47.34
2018-09-12T11:34:21.562Z,47.33
2018-09-12T11:36:50.486Z,47.29
2018-09-12T11:39:19.529Z,47.13
2018-09-12T11:41:48.473Z,46.74
2018-09-12T11:44:17.245Z,46.88
2018-09-12T11:46:45.961Z,46.54
2018-09-12T11:49:14.812Z,47.19
2018-09-12T11:51:43.657Z,46.42
2018-09-12T11:54:12.376Z,47.10
2018-09-12T11:56:41.361Z,46.39
2018-09-12T11:59:10.205Z,46.37
2018-09-12T12:01:39.000Z,46.35
2018-09-12T12:04:08.276Z,47.08
2018-09-12T12:06:37.340Z,47.00
2018-09-12T12:09:08.816Z,46.95
2018-09-12T12:11:38.012Z,46.92
2018-09-12T12:14:07.246Z,47.00
2018-09-12T12:16:36.447Z,46.56
2018-09-12T12:19:05.829Z,46.93
2018-09-12T12:21:35.002Z,46.44
2018-09-12T12:24:04.811Z,46.70
2018-09-12T12:26:33.825Z,46.46
2018-09-12T12:29:03.445Z,46.41
2018-09-12T12:31:32.562Z,46.31
2018-09-12T12:34:01.598Z,46.62
2018-09-12T12:36:30.712Z,46.55
2018-09-12T12:38:59.484Z,46.63
2018-09-12T12:41:28.446Z,46.11
2018-09-12T12:43:57.223Z,46.06
2018-09-12T12:46:26.229Z,45.99
2018-09-12T12:48:55.284Z,45.90
2018-09-12T12:51:24.337Z,45.89
2018-09-12T12:53:53.303Z,45.78
2018-09-12T12:56:22.322Z,46.37
2018-09-12T12:58:51.647Z,46.21
2018-09-12T13:01:21.045Z,45.67
2018-09-12T13:03:50.091Z,46.15
2018-09-12T13:06:18.873Z,45.98
2018-09-12T13:08:48.077Z,45.68
2018-09-12T13:11:17.137Z,46.00
2018-09-12T13:13:46.090Z,45.86
2018-09-12T13:16:15.222Z,45.85
2018-09-12T13:18:44.137Z,45.80
2018-09-12T13:21:13.248Z,45.19
2018-09-12T13:23:42.065Z,45.14
2018-09-12T13:26:10.911Z,45.71
2018-09-12T13:28:39.650Z,45.58
2018-09-12T13:31:08.827Z,45.72
2018-09-12T13:33:37.821Z,45.34
2018-09-12T13:36:06.877Z,44.86
2018-09-12T13:38:35.851Z,44.91
2018-09-12T13:41:04.948Z,45.03
2018-09-12T13:43:34.043Z,45.60
2018-09-12T13:46:02.983Z,45.16
2018-09-12T13:48:31.795Z,45.46
2018-09-12T13:51:00.572Z,45.34
2018-09-12T13:53:29.556Z,45.03
2018-09-12T13:55:58.370Z,45.52
2018-09-12T13:58:27.145Z,44.90
2018-09-12T14:00:55.889Z,44.86
2018-09-12T14:03:24.944Z,45.48
2018-09-12T14:05:54.031Z,45.40
2018-09-12T14:08:22.861Z,45.15
2018-09-12T14:10:51.635Z,45.27
2018-09-12T14:13:20.707Z,44.83
2018-09-12T14:15:49.846Z,44.54
2018-09-12T14:18:18.792Z,45.07
2018-09-12T14:20:47.637Z,44.68
2018-09-12T14:23:16.690Z,45.16
2018-09-12T14:25:45.673Z,45.17
2018-09-12T14:28:14.461Z,44.70
2018-09-12T14:30:43.313Z,45.18
2018-09-12T14:33:13.499Z,45.15
2018-09-12T14:35:42.418Z,44.68
2018-09-12T14:38:11.753Z,44.74
2018-09-12T14:40:40.660Z,44.71
2018-09-12T14:43:09.414Z,45.20
2018-09-12T14:48:06.488Z,44.95
2018-09-12T14:50:35.372Z,45.00
2018-09-12T14:53:04.873Z,44.83
2018-09-12T15:00:29.802Z,44.85
2018-09-12T15:02:59.740Z,44.60
2018-09-12T15:07:57.630Z,45.01
2018-09-12T15:10:27.010Z,44.40
2018-09-12T15:12:56.142Z,44.92
2018-09-12T15:15:25.244Z,44.60
2018-09-12T15:20:22.211Z,44.71
2018-09-12T15:22:51.020Z,44.60
2018-09-12T15:30:15.627Z,44.72
2018-09-12T15:32:44.569Z,44.14
2018-09-12T15:35:13.715Z,44.63
2018-09-12T15:37:42.620Z,44.41
2018-09-12T15:40:11.769Z,44.23
2018-09-12T15:42:41.178Z,44.29
2018-09-12T15:45:10.313Z,43.79
2018-09-12T15:47:39.625Z,43.72
2018-09-12T15:50:08.481Z,43.79
2018-09-12T15:52:37.240Z,43.85
2018-09-12T15:55:06.042Z,44.29
2018-09-12T15:57:34.794Z,43.70
2018-09-12T16:00:04.176Z,44.07
2018-09-12T16:02:32.957Z,44.12
2018-09-12T16:05:01.780Z,44.21
2018-09-12T16:07:30.606Z,43.74
2018-09-12T16:09:59.385Z,44.22
2018-09-12T16:12:28.214Z,43.73
2018-09-12T16:14:56.958Z,44.30
2018-09-12T16:17:25.713Z,43.64
2018-09-12T16:19:54.900Z,44.17
2018-09-12T16:22:23.847Z,43.47
2018-09-12T16:24:53.130Z,43.54
2018-09-12T16:27:22.650Z,43.67
2018-09-12T16:29:51.984Z,43.32
2018-09-12T16:32:21.057Z,43.50
2018-09-12T16:34:50.262Z,43.85
2018-09-12T16:37:19.401Z,43.38
2018-09-12T16:39:48.504Z,43.28
2018-09-12T16:42:17.642Z,43.44
2018-09-12T16:44:46.860Z,43.35
2018-09-12T16:47:15.943Z,43.19
2018-09-12T16:49:44.882Z,43.17
2018-09-12T16:52:13.689Z,43.87
2018-09-12T16:54:42.546Z,43.32
2018-09-12T16:57:11.389Z,43.49
2018-09-12T16:59:40.529Z,43.84
2018-09-12T17:02:09.311Z,43.84
2018-09-12T17:04:38.483Z,43.34
2018-09-12T17:07:07.312Z,43.32
2018-09-12T17:09:36.115Z,43.87
2018-09-12T17:12:04.909Z,43.70
2018-09-12T17:14:33.712Z,43.42
2018-09-12T17:17:03.476Z,43.75
2018-09-12T17:19:32.247Z,43.19
2018-09-12T17:22:01.030Z,43.76
2018-09-12T17:24:29.845Z,43.50
2018-09-12T17:26:58.642Z,43.39
2018-09-12T17:29:27.429Z,43.60
2018-09-12T17:31:56.445Z,43.35
2018-09-12T17:34:25.234Z,43.72
2018-09-12T17:36:54.377Z,43.41
2018-09-12T17:39:23.185Z,43.56
2018-09-12T17:41:51.961Z,43.55
2018-09-12T17:44:21.107Z,42.94
2018-09-12T17:46:49.939Z,42.96
2018-09-12T17:49:18.761Z,43.01
2018-09-12T17:51:47.637Z,42.99
2018-09-12T17:54:16.459Z,43.12
2018-09-12T17:56:45.326Z,43.40
2018-09-12T17:59:14.564Z,42.90
2018-09-12T18:01:43.661Z,43.24
2018-09-12T18:04:12.702Z,43.46
2018-09-12T18:06:41.733Z,42.83
2018-09-12T18:09:11.079Z,43.05
2018-09-12T18:11:39.879Z,42.73
2018-09-12T18:14:08.835Z,42.69
2018-09-12T18:16:37.627Z,43.33
2018-09-12T18:19:06.649Z,42.77
2018-09-12T18:21:35.480Z,42.70
2018-09-12T18:24:04.744Z,43.15
2018-09-12T18:26:33.556Z,43.21
2018-09-12T18:29:02.619Z,43.28
2018-09-12T18:31:31.472Z,42.63
2018-09-12T18:34:00.234Z,43.12
2018-09-12T18:36:29.368Z,42.98
2018-09-12T18:38:58.386Z,43.21
2018-09-12T18:41:27.636Z,43.20
2018-09-12T18:43:56.706Z,42.58
2018-09-12T18:46:25.806Z,42.78
2018-09-12T18:48:54.571Z,42.52
2018-09-12T18:51:23.556Z,42.52
2018-09-12T18:53:52.701Z,42.55
2018-09-12T18:56:21.530Z,42.59
2018-09-12T18:58:50.384Z,43.02
2018-09-12T19:01:19.528Z,42.49
2018-09-12T19:03:48.365Z,42.88
2018-09-12T19:06:17.403Z,42.84
2018-09-12T19:08:46.297Z,42.27
2018-09-12T19:11:15.108Z,42.23
2018-09-12T19:13:44.257Z,42.81
2018-09-12T19:16:13.374Z,42.80
2018-09-12T19:18:42.554Z,42.45
2018-09-12T19:21:11.699Z,42.77
2018-09-12T19:23:41.019Z,42.17
2018-09-12T19:26:10.228Z,42.20
2018-09-12T19:28:39.447Z,42.57
2018-09-12T19:31:08.675Z,42.65
2018-09-12T19:33:37.803Z,42.25
2018-09-12T19:36:06.927Z,41.98
2018-09-12T19:38:36.069Z,42.40
2018-09-12T19:41:05.296Z,42.37
2018-09-12T19:43:34.722Z,41.88
2018-09-12T19:46:04.288Z,42.26
2018-09-12T19:48:33.393Z,42.44
2018-09-12T19:51:03.156Z,41.94
2018-09-12T19:53:32.285Z,42.13
2018-09-12T19:56:01.398Z,41.73
2018-09-12T19:58:30.808Z,41.77
2018-09-12T20:01:00.049Z,42.34
2018-09-12T20:03:28.901Z,41.83
2018-09-12T20:05:58.172Z,41.63
2018-09-12T20:08:27.065Z,41.59
2018-09-12T20:10:56.464Z,41.70
2018-09-12T20:13:25.560Z,41.52
2018-09-12T20:15:54.925Z,41.63
2018-09-12T20:18:24.021Z,41.58
2018-09-12T20:20:53.056Z,42.23
2018-09-12T20:24:52.001Z,41.86
2018-09-12T20:27:21.075Z,41.67
2018-09-12T20:29:49.966Z,41.56
2018-09-12T20:32:18.968Z,42.08
2018-09-12T20:34:47.921Z,41.67
2018-09-12T20:37:16.874Z,41.48
2018-09-12T20:39:45.751Z,42.20
2018-09-12T20:42:14.769Z,41.57
2018-09-12T20:44:43.694Z,41.70
2018-09-12T20:47:13.866Z,41.87
2018-09-12T20:49:43.062Z,41.56
2018-09-12T20:52:11.918Z,41.71
2018-09-12T20:54:40.700Z,41.88
2018-09-12T20:57:09.566Z,42.00
2018-09-12T20:59:38.483Z,41.39
2018-09-12T21:02:07.733Z,41.40
2018-09-12T21:04:36.591Z,41.45
2018-09-12T21:07:05.520Z,41.84
2018-09-12T21:09:34.310Z,41.71
2018-09-12T21:12:03.145Z,41.84
2018-09-12T21:14:31.925Z,41.24
2018-09-12T21:17:00.803Z,41.47
2018-09-12T21:19:29.866Z,41.20
2018-09-12T21:21:58.654Z,41.81
2018-09-12T21:24:27.573Z,41.70
2018-09-12T21:26:56.356Z,41.15
2018-09-12T21:29:25.110Z,41.15
2018-09-12T21:31:53.955Z,41.73
2018-09-12T21:34:22.755Z,41.14
2018-09-12T21:36:52.348Z,41.71
2018-09-12T21:39:21.186Z,41.65
2018-09-12T21:41:49.962Z,41.40
2018-09-12T21:44:18.712Z,40.90
2018-09-12T21:46:47.474Z,41.06
2018-09-12T21:49:16.303Z,41.27
2018-09-12T21:51:45.194Z,41.54
2018-09-12T21:54:14.034Z,41.27
2018-09-12T21:56:43.006Z,40.89
2018-09-12T21:59:11.782Z,40.88
2018-09-12T22:01:41.616Z,41.36
2018-09-12T22:04:10.452Z,41.26
2018-09-12T22:06:39.281Z,40.68
2018-09-12T22:09:11.633Z,40.84
2018-09-12T22:11:40.451Z,40.95
2018-09-12T22:14:09.318Z,41.15
2018-09-12T22:16:38.120Z,40.69
2018-09-12T22:19:07.073Z,40.61
2018-09-12T22:21:35.964Z,41.08
2018-09-12T22:24:04.997Z,41.11
2018-09-12T22:26:33.808Z,40.58
2018-09-12T22:29:02.624Z,40.60
2018-09-12T22:31:31.425Z,40.46
2018-09-12T22:34:00.278Z,41.05
2018-09-12T22:36:29.147Z,41.14
2018-09-12T22:38:58.103Z,41.13
2018-09-12T22:41:26.863Z,40.61
2018-09-12T22:43:55.791Z,41.13
2018-09-12T22:46:24.566Z,41.16
2018-09-12T22:48:53.295Z,40.49
2018-09-12T22:51:22.102Z,40.56
2018-09-12T22:53:50.955Z,40.71
2018-09-12T22:56:19.744Z,41.00
2018-09-12T22:58:48.631Z,40.90
2018-09-12T23:01:17.420Z,40.48
2018-09-12T23:03:46.200Z,41.13
2018-09-12T23:06:15.005Z,41.06
2018-09-12T23:08:43.942Z,40.73
2018-09-12T23:11:12.765Z,40.54
2018-09-12T23:13:41.761Z,40.87
2018-09-12T23:16:10.565Z,40.38
2018-09-12T23:18:39.330Z,40.38
2018-09-12T23:21:08.117Z,40.85
2018-09-12T23:23:36.881Z,40.75
2018-09-12T23:26:05.784Z,40.31
2018-09-12T23:28:34.636Z,40.48
2018-09-12T23:31:03.406Z,40.46
2018-09-12T23:33:32.167Z,40.11
2018-09-12T23:36:01.011Z,40.26
2018-09-12T23:38:29.831Z,40.33
2018-09-12T23:40:58.632Z,40.24
2018-09-12T23:43:27.395Z,40.35
2018-09-12T23:45:56.148Z,40.69
2018-09-12T23:48:24.992Z,40.38
2018-09-12T23:50:53.777Z,40.23
2018-09-12T23:53:22.536Z,40.25
2018-09-12T23:55:51.348Z,40.31
2018-09-12T23:58:20.226Z,40.27
